Ansonia, Connecticut
Current Conditions -  °F | °C
As of 7:50 PM on Friday 24 Oct 2014 (Local Time) from KOXC Reporting Station
Scattered Clouds Scattered Clouds  
Wind Chill:   Ceiling: Unl
Heat Index:   Visibility: 10mi
Dew Point:   Wind: 5mph
Humidity: 71%   Direction: 360°N
Pressure: 29.79"   Gusts: NA
Location:  41.34°N, 73.08°W
Report Text: KOXC 242350Z 36004KT 10SM SCT100 09/04 A2979
Loading
Personal Weather Stations






























Interactive Weather Map
Tropical Storm Tracking
New forecast layout! Learn more

10-Day Weather Forecast

Advertisements
Track Severe Weather on mobile